createdAt,value
2019-05-17T00:01:37.607Z,8.13
2019-05-17T00:06:33.690Z,7.76
2019-05-17T00:11:29.531Z,7.75
2019-05-17T00:16:26.843Z,7.67
2019-05-17T00:21:22.631Z,7.49
2019-05-17T00:26:18.352Z,7.69
2019-05-17T00:31:14.123Z,7.62
2019-05-17T00:36:09.894Z,7.66
2019-05-17T00:41:07.051Z,7.56
2019-05-17T00:46:02.978Z,7.30
2019-05-17T00:51:02.217Z,7.34
2019-05-17T00:55:57.318Z,7.25
2019-05-17T01:00:53.417Z,7.35
2019-05-17T01:05:49.209Z,7.38
2019-05-17T01:10:47.210Z,7.25
2019-05-17T01:15:42.364Z,6.74
2019-05-17T01:20:38.095Z,6.86
2019-05-17T01:25:33.795Z,6.98
2019-05-17T01:30:29.529Z,6.96
2019-05-17T01:35:26.622Z,6.82
2019-05-17T01:40:22.610Z,6.63
2019-05-17T01:45:18.877Z,6.80
2019-05-17T01:50:17.248Z,6.86
2019-05-17T01:55:12.826Z,6.66
2019-05-17T02:00:10.621Z,6.48
2019-05-17T02:05:07.485Z,6.41
2019-05-17T02:10:03.289Z,6.70
2019-05-17T02:14:59.074Z,6.75
2019-05-17T02:19:57.165Z,6.47
2019-05-17T02:24:52.523Z,6.45
2019-05-17T02:29:48.435Z,6.65
2019-05-17T02:34:44.134Z,6.61
2019-05-17T02:39:53.998Z,6.41
2019-05-17T02:44:37.388Z,6.41
2019-05-17T02:49:33.366Z,6.50
2019-05-17T02:54:29.084Z,6.28
2019-05-17T02:59:25.162Z,6.30
2019-05-17T03:04:23.679Z,6.13
2019-05-17T03:09:18.450Z,6.23
2019-05-17T03:14:14.309Z,6.23
2019-05-17T03:19:13.082Z,6.22
2019-05-17T03:24:07.858Z,6.21
2019-05-17T03:29:03.971Z,5.96
2019-05-17T03:34:06.797Z,5.97
2019-05-17T03:38:59.037Z,6.01
2019-05-17T03:43:54.921Z,5.97
2019-05-17T03:48:53.226Z,5.76
2019-05-17T03:53:48.740Z,5.86
2019-05-17T03:58:44.495Z,5.87
2019-05-17T04:03:43.355Z,5.95
2019-05-17T04:08:38.041Z,6.03
2019-05-17T04:13:34.014Z,6.03
2019-05-17T04:18:29.822Z,6.08
2019-05-17T04:23:25.627Z,6.08
2019-05-17T04:28:22.904Z,5.99
2019-05-17T04:33:19.031Z,6.21
2019-05-17T04:38:14.799Z,6.12
2019-05-17T04:43:13.310Z,6.39
2019-05-17T04:48:08.174Z,6.81
2019-05-17T04:53:03.969Z,7.31
2019-05-17T04:58:03.481Z,7.69
2019-05-17T05:02:57.254Z,8.31
2019-05-17T05:07:53.638Z,8.63
2019-05-17T05:12:52.216Z,8.92
2019-05-17T05:17:47.440Z,9.17
2019-05-17T05:22:43.358Z,9.55
2019-05-17T05:27:39.216Z,9.98
2019-05-17T05:32:35.072Z,10.18
2019-05-17T05:37:33.106Z,10.51
2019-05-17T05:42:28.394Z,10.58
2019-05-17T05:47:24.142Z,10.62
2019-05-17T05:52:21.877Z,10.68
2019-05-17T05:57:16.792Z,10.53
2019-05-17T06:02:12.567Z,10.45
2019-05-17T06:07:08.297Z,10.36
2019-05-17T06:12:04.147Z,10.23
2019-05-17T06:17:02.758Z,9.71
2019-05-17T06:21:57.580Z,9.54
2019-05-17T06:26:53.334Z,9.48
2019-05-17T06:31:51.731Z,9.66
2019-05-17T06:36:46.603Z,9.83
2019-05-17T06:41:42.437Z,10.20
2019-05-17T06:46:38.251Z,10.35
2019-05-17T06:51:34.620Z,10.77
2019-05-17T06:56:32.207Z,11.04
2019-05-17T07:01:29.211Z,11.29
2019-05-17T07:06:26.676Z,11.67
2019-05-17T07:11:22.443Z,12.24
2019-05-17T07:16:19.728Z,12.93
2019-05-17T07:21:15.766Z,13.07
2019-05-17T07:26:12.131Z,13.73
2019-05-17T07:31:10.067Z,14.07
2019-05-17T07:36:05.600Z,13.83
2019-05-17T07:41:01.407Z,14.05
2019-05-17T07:45:57.297Z,14.35
2019-05-17T07:50:53.173Z,14.74
2019-05-17T07:55:50.536Z,14.63
2019-05-17T08:00:46.492Z,15.05
2019-05-17T08:05:42.497Z,15.36
2019-05-17T08:10:41.100Z,15.52
2019-05-17T08:15:36.029Z,15.68
2019-05-17T08:20:31.775Z,15.37
2019-05-17T08:25:27.566Z,15.77
2019-05-17T08:30:23.450Z,16.17
2019-05-17T08:35:19.808Z,16.47
2019-05-17T08:40:16.018Z,16.01
2019-05-17T08:45:11.944Z,16.12
2019-05-17T08:50:10.908Z,16.07
2019-05-17T08:55:06.876Z,16.75
2019-05-17T09:00:02.685Z,16.24
2019-05-17T09:05:00.626Z,16.72
2019-05-17T09:09:56.666Z,16.35
2019-05-17T09:14:52.480Z,16.33
2019-05-17T09:19:50.526Z,16.74
2019-05-17T09:24:45.766Z,16.83
2019-05-17T09:29:41.549Z,17.41
2019-05-17T09:34:37.291Z,17.88
2019-05-17T09:39:33.039Z,17.81
2019-05-17T09:44:29.921Z,18.47
2019-05-17T09:49:25.741Z,18.52
2019-05-17T09:54:37.114Z,18.96
2019-05-17T09:59:20.443Z,18.99
2019-05-17T10:04:16.270Z,19.17
2019-05-17T10:09:12.026Z,19.00
2019-05-17T10:14:11.592Z,19.32
2019-05-17T10:19:09.441Z,18.66
2019-05-17T10:24:04.499Z,18.35
2019-05-17T10:29:00.344Z,18.88
2019-05-17T10:33:58.226Z,19.62
2019-05-17T10:38:53.581Z,18.91
2019-05-17T10:43:50.053Z,18.81
2019-05-17T10:48:46.051Z,18.82
2019-05-17T10:53:41.825Z,18.41
2019-05-17T10:58:39.937Z,19.31
2019-05-17T11:03:36.158Z,19.75
2019-05-17T11:08:32.173Z,19.94
2019-05-17T11:14:14.200Z,20.49
2019-05-17T11:19:08.870Z,20.91
2019-05-17T11:24:22.060Z,21.12
2019-05-17T11:29:41.420Z,21.24
2019-05-17T11:35:00.359Z,21.10
2019-05-17T11:51:56.532Z,21.78
2019-05-17T11:57:34.134Z,21.80
2019-05-17T12:02:37.208Z,21.74
2019-05-17T12:07:47.604Z,21.32
2019-05-17T12:13:15.112Z,21.11
2019-05-17T12:18:34.287Z,20.56
2019-05-17T12:24:12.821Z,20.47
2019-05-17T12:29:17.704Z,20.63
2019-05-17T12:34:19.220Z,20.78
2019-05-17T12:39:14.767Z,21.16
2019-05-17T12:44:10.640Z,21.40
2019-05-17T12:49:06.623Z,21.50
2019-05-17T12:54:02.656Z,21.74
2019-05-17T12:58:59.035Z,21.58
2019-05-17T13:04:02.942Z,21.43
2019-05-17T13:09:09.347Z,21.27
2019-05-17T13:14:23.519Z,21.09
2019-05-17T13:19:19.609Z,20.84
2019-05-17T13:24:38.400Z,21.02
2019-05-17T13:29:46.507Z,21.01
2019-05-17T13:35:01.603Z,20.98
2019-05-17T13:40:21.394Z,20.88
2019-05-17T13:45:18.194Z,20.80
2019-05-17T13:50:30.772Z,20.66
2019-05-17T13:55:26.817Z,20.80
2019-05-17T14:00:22.984Z,21.17
2019-05-17T14:05:18.864Z,21.06
2019-05-17T14:10:26.838Z,20.90
2019-05-17T14:15:13.593Z,20.78
2019-05-17T14:20:09.795Z,20.72
2019-05-17T14:25:05.910Z,20.62
2019-05-17T14:30:01.767Z,20.63
2019-05-17T14:34:57.568Z,21.12
2019-05-17T14:39:53.455Z,21.01
2019-05-17T14:44:49.246Z,21.01
2019-05-17T14:49:45.140Z,20.69
2019-05-17T14:54:40.900Z,20.35
2019-05-17T14:59:36.679Z,20.42
2019-05-17T15:04:32.586Z,20.58
2019-05-17T15:09:28.643Z,20.79
2019-05-17T15:14:24.499Z,21.11
2019-05-17T15:19:20.545Z,21.20
2019-05-17T15:24:16.319Z,21.24
2019-05-17T15:29:12.193Z,21.23
2019-05-17T15:34:08.175Z,20.96
2019-05-17T15:39:04.917Z,20.68
2019-05-17T15:44:05.046Z,20.71
2019-05-17T15:49:00.844Z,20.79
2019-05-17T15:53:56.906Z,20.88
2019-05-17T15:58:53.111Z,20.96
2019-05-17T16:03:49.116Z,20.92
2019-05-17T16:08:45.088Z,20.90
2019-05-17T16:13:40.911Z,20.77
2019-05-17T16:18:37.120Z,20.79
2019-05-17T16:23:32.997Z,20.58
2019-05-17T16:28:28.931Z,20.41
2019-05-17T16:33:24.798Z,20.44
2019-05-17T16:38:20.559Z,20.35
2019-05-17T16:43:18.516Z,20.41
2019-05-17T16:48:13.938Z,20.52
2019-05-17T16:53:09.898Z,20.58
2019-05-17T16:58:06.066Z,20.84
2019-05-17T17:03:01.808Z,20.83
2019-05-17T17:07:57.765Z,20.64
2019-05-17T17:12:53.582Z,20.40
2019-05-17T17:17:49.482Z,20.27
2019-05-17T17:22:45.265Z,20.20
2019-05-17T17:27:41.224Z,20.11
2019-05-17T17:32:37.153Z,20.19
2019-05-17T17:37:32.979Z,19.95
2019-05-17T17:42:28.925Z,19.69
2019-05-17T17:47:24.773Z,19.45
2019-05-17T17:52:20.488Z,19.33
2019-05-17T17:57:16.357Z,19.23
2019-05-17T18:02:12.456Z,19.18
2019-05-17T18:07:08.482Z,19.05
2019-05-17T18:12:05.759Z,19.00
2019-05-17T18:17:06.164Z,18.79
2019-05-17T18:22:02.016Z,18.64
2019-05-17T18:26:57.841Z,18.47
2019-05-17T18:31:53.667Z,18.32
2019-05-17T18:36:51.421Z,18.22
2019-05-17T18:41:47.285Z,18.06
2019-05-17T18:46:43.160Z,17.89
2019-05-17T18:51:38.955Z,17.49
2019-05-17T18:56:34.755Z,16.95
2019-05-17T19:01:30.499Z,16.93
2019-05-17T19:06:26.276Z,17.02
2019-05-17T19:11:22.054Z,17.05
2019-05-17T19:16:17.813Z,16.98
2019-05-17T19:21:13.632Z,16.92
2019-05-17T19:26:09.389Z,16.79
2019-05-17T19:31:05.189Z,16.61
2019-05-17T19:36:00.974Z,16.63
2019-05-17T19:40:56.761Z,16.58
2019-05-17T19:45:52.521Z,16.49
2019-05-17T19:50:48.323Z,16.46
2019-05-17T19:55:44.243Z,16.43
2019-05-17T20:00:40.006Z,16.31
2019-05-17T20:05:35.948Z,16.42
2019-05-17T20:10:31.731Z,16.33
2019-05-17T20:15:34.633Z,16.09
2019-05-17T20:20:25.063Z,15.93
2019-05-17T20:25:21.029Z,15.81
2019-05-17T20:30:17.672Z,15.82
2019-05-17T20:35:13.860Z,15.74
2019-05-17T20:40:57.023Z,15.59
2019-05-17T20:45:52.781Z,15.62
2019-05-17T20:50:48.554Z,15.23
2019-05-17T20:55:44.695Z,15.38
2019-05-17T21:00:40.544Z,15.46
2019-05-17T21:05:36.269Z,15.36
2019-05-17T21:10:32.127Z,15.14
2019-05-17T21:15:27.958Z,15.17
2019-05-17T21:20:23.685Z,15.23
2019-05-17T21:25:19.724Z,15.19
2019-05-17T21:30:15.686Z,15.21
2019-05-17T21:35:12.839Z,15.11
2019-05-17T21:40:09.260Z,15.04
2019-05-17T21:45:05.635Z,14.94
2019-05-17T21:50:01.395Z,14.89
2019-05-17T21:54:57.167Z,14.89
2019-05-17T21:59:53.040Z,14.90
2019-05-17T22:04:48.784Z,14.86
2019-05-17T22:09:44.638Z,14.74
2019-05-17T22:14:40.454Z,14.53
2019-05-17T22:19:36.211Z,14.50
2019-05-17T22:24:31.914Z,14.54
2019-05-17T22:29:27.656Z,14.41
2019-05-17T22:34:23.373Z,14.40
2019-05-17T22:39:19.131Z,14.40
2019-05-17T22:44:15.004Z,14.17
2019-05-17T22:49:10.802Z,14.12
2019-05-17T22:54:06.588Z,14.10
2019-05-17T22:59:02.503Z,13.94
2019-05-17T23:03:58.429Z,14.03
2019-05-17T23:08:54.208Z,14.00
2019-05-17T23:20:33.861Z,13.62
2019-05-17T23:32:34.159Z,13.78
2019-05-17T23:38:32.915Z,13.58
